sensor_id;sensor_type;location;lat;lon;timestamp;P1;durP1;ratioP1;P2;durP2;ratioP2
7879;SDS011;3985;49.366;2.738;2023-07-08T00:01:07;7.75;;;7.75;;
7879;SDS011;3985;49.366;2.738;2023-07-08T00:03:43;6.00;;;6.00;;
7879;SDS011;3985;49.366;2.738;2023-07-08T00:06:11;7.75;;;6.75;;
7879;SDS011;3985;49.366;2.738;2023-07-08T00:08:41;5.25;;;4.00;;
7879;SDS011;3985;49.366;2.738;2023-07-08T00:11:11;8.25;;;7.00;;
7879;SDS011;3985;49.366;2.738;2023-07-08T00:13:39;8.75;;;6.75;;
7879;SDS011;3985;49.366;2.738;2023-07-08T00:16:13;6.75;;;6.75;;
7879;SDS011;3985;49.366;2.738;2023-07-08T00:18:43;5.50;;;5.50;;
7879;SDS011;3985;49.366;2.738;2023-07-08T00:21:11;10.25;;;8.50;;
7879;SDS011;3985;49.366;2.738;2023-07-08T00:23:43;5.00;;;5.00;;
7879;SDS011;3985;49.366;2.738;2023-07-08T00:26:13;9.50;;;7.75;;
7879;SDS011;3985;49.366;2.738;2023-07-08T00:28:44;7.75;;;7.75;;
7879;SDS011;3985;49.366;2.738;2023-07-08T00:31:12;8.75;;;8.75;;
7879;SDS011;3985;49.366;2.738;2023-07-08T00:33:42;6.50;;;6.50;;
7879;SDS011;3985;49.366;2.738;2023-07-08T00:36:10;8.50;;;7.25;;
7879;SDS011;3985;49.366;2.738;2023-07-08T00:38:39;9.25;;;8.00;;
7879;SDS011;3985;49.366;2.738;2023-07-08T00:41:11;7.75;;;7.00;;
7879;SDS011;3985;49.366;2.738;2023-07-08T00:43:43;9.00;;;9.00;;
7879;SDS011;3985;49.366;2.738;2023-07-08T00:46:20;9.75;;;7.00;;
7879;SDS011;3985;49.366;2.738;2023-07-08T00:48:56;9.00;;;7.75;;
7879;SDS011;3985;49.366;2.738;2023-07-08T00:51:26;11.25;;;11.25;;
7879;SDS011;3985;49.366;2.738;2023-07-08T00:53:54;10.75;;;10.00;;
7879;SDS011;3985;49.366;2.738;2023-07-08T00:56:23;7.50;;;7.50;;
7879;SDS011;3985;49.366;2.738;2023-07-08T00:58:54;6.50;;;6.50;;
7879;SDS011;3985;49.366;2.738;2023-07-08T01:01:24;11.75;;;10.50;;
7879;SDS011;3985;49.366;2.738;2023-07-08T01:03:53;10.75;;;9.50;;
7879;SDS011;3985;49.366;2.738;2023-07-08T01:06:22;11.00;;;7.75;;
7879;SDS011;3985;49.366;2.738;2023-07-08T01:08:56;10.75;;;9.25;;
7879;SDS011;3985;49.366;2.738;2023-07-08T01:11:26;8.25;;;8.25;;
7879;SDS011;3985;49.366;2.738;2023-07-08T01:13:53;7.00;;;7.00;;
7879;SDS011;3985;49.366;2.738;2023-07-08T01:16:20;9.00;;;9.00;;
7879;SDS011;3985;49.366;2.738;2023-07-08T01:18:48;10.00;;;10.00;;
7879;SDS011;3985;49.366;2.738;2023-07-08T01:21:29;8.00;;;8.00;;
7879;SDS011;3985;49.366;2.738;2023-07-08T01:24:00;8.25;;;7.00;;
7879;SDS011;3985;49.366;2.738;2023-07-08T01:26:29;8.75;;;8.75;;
7879;SDS011;3985;49.366;2.738;2023-07-08T01:28:58;9.00;;;9.00;;
7879;SDS011;3985;49.366;2.738;2023-07-08T01:31:25;10.50;;;9.25;;
7879;SDS011;3985;49.366;2.738;2023-07-08T01:33:52;9.00;;;7.50;;
7879;SDS011;3985;49.366;2.738;2023-07-08T01:36:20;7.75;;;7.75;;
7879;SDS011;3985;49.366;2.738;2023-07-08T01:38:47;9.75;;;9.00;;
7879;SDS011;3985;49.366;2.738;2023-07-08T01:41:16;9.00;;;9.00;;
7879;SDS011;3985;49.366;2.738;2023-07-08T01:43:43;11.50;;;8.75;;
7879;SDS011;3985;49.366;2.738;2023-07-08T01:46:11;9.75;;;9.75;;
7879;SDS011;3985;49.366;2.738;2023-07-08T01:48:42;8.00;;;8.00;;
7879;SDS011;3985;49.366;2.738;2023-07-08T01:51:13;10.75;;;8.25;;
7879;SDS011;3985;49.366;2.738;2023-07-08T01:53:41;9.75;;;9.75;;
7879;SDS011;3985;49.366;2.738;2023-07-08T01:56:12;7.00;;;7.00;;
7879;SDS011;3985;49.366;2.738;2023-07-08T01:58:44;12.25;;;10.50;;
7879;SDS011;3985;49.366;2.738;2023-07-08T02:01:11;9.75;;;8.75;;
7879;SDS011;3985;49.366;2.738;2023-07-08T02:03:40;10.25;;;7.75;;
7879;SDS011;3985;49.366;2.738;2023-07-08T02:06:08;8.00;;;8.00;;
7879;SDS011;3985;49.366;2.738;2023-07-08T02:08:35;11.25;;;9.75;;
7879;SDS011;3985;49.366;2.738;2023-07-08T02:11:02;8.75;;;8.75;;
7879;SDS011;3985;49.366;2.738;2023-07-08T02:13:30;7.75;;;7.75;;
7879;SDS011;3985;49.366;2.738;2023-07-08T02:15:58;12.00;;;9.75;;
7879;SDS011;3985;49.366;2.738;2023-07-08T02:18:26;7.50;;;7.50;;
7879;SDS011;3985;49.366;2.738;2023-07-08T02:20:57;9.50;;;9.50;;
7879;SDS011;3985;49.366;2.738;2023-07-08T02:23:24;9.00;;;9.00;;
7879;SDS011;3985;49.366;2.738;2023-07-08T02:25:52;7.25;;;7.25;;
7879;SDS011;3985;49.366;2.738;2023-07-08T02:28:21;9.50;;;7.00;;
7879;SDS011;3985;49.366;2.738;2023-07-08T02:30:48;8.00;;;8.00;;
7879;SDS011;3985;49.366;2.738;2023-07-08T02:33:17;24.75;;;22.25;;
7879;SDS011;3985;49.366;2.738;2023-07-08T02:35:44;12.75;;;12.75;;
7879;SDS011;3985;49.366;2.738;2023-07-08T02:38:11;11.25;;;11.25;;
7879;SDS011;3985;49.366;2.738;2023-07-08T02:40:42;9.50;;;9.50;;
7879;SDS011;3985;49.366;2.738;2023-07-08T02:43:10;7.00;;;7.00;;
7879;SDS011;3985;49.366;2.738;2023-07-08T02:45:37;10.50;;;9.50;;
7879;SDS011;3985;49.366;2.738;2023-07-08T02:48:05;12.00;;;12.00;;
7879;SDS011;3985;49.366;2.738;2023-07-08T02:50:33;10.50;;;10.50;;
7879;SDS011;3985;49.366;2.738;2023-07-08T02:53:00;9.25;;;8.75;;
7879;SDS011;3985;49.366;2.738;2023-07-08T02:55:28;12.50;;;10.50;;
7879;SDS011;3985;49.366;2.738;2023-07-08T02:57:56;10.25;;;10.25;;
7879;SDS011;3985;49.366;2.738;2023-07-08T03:00:23;10.75;;;10.75;;
7879;SDS011;3985;49.366;2.738;2023-07-08T03:02:50;8.00;;;8.00;;
7879;SDS011;3985;49.366;2.738;2023-07-08T03:05:17;10.00;;;10.00;;
7879;SDS011;3985;49.366;2.738;2023-07-08T03:07:46;11.50;;;11.50;;
7879;SDS011;3985;49.366;2.738;2023-07-08T03:10:13;10.50;;;10.50;;
7879;SDS011;3985;49.366;2.738;2023-07-08T03:12:41;10.00;;;10.00;;
7879;SDS011;3985;49.366;2.738;2023-07-08T03:15:11;7.00;;;7.00;;
7879;SDS011;3985;49.366;2.738;2023-07-08T03:17:38;9.25;;;9.00;;
7879;SDS011;3985;49.366;2.738;2023-07-08T03:20:09;13.00;;;11.75;;
7879;SDS011;3985;49.366;2.738;2023-07-08T03:22:36;9.50;;;9.50;;
7879;SDS011;3985;49.366;2.738;2023-07-08T03:25:06;12.75;;;11.75;;
7879;SDS011;3985;49.366;2.738;2023-07-08T03:27:34;11.25;;;10.00;;
7879;SDS011;3985;49.366;2.738;2023-07-08T03:30:01;10.25;;;10.25;;
7879;SDS011;3985;49.366;2.738;2023-07-08T03:32:30;10.75;;;10.75;;
7879;SDS011;3985;49.366;2.738;2023-07-08T03:34:57;9.25;;;8.00;;
7879;SDS011;3985;49.366;2.738;2023-07-08T03:37:26;10.25;;;10.25;;
7879;SDS011;3985;49.366;2.738;2023-07-08T03:39:53;10.75;;;10.00;;
7879;SDS011;3985;49.366;2.738;2023-07-08T03:42:22;12.25;;;11.25;;
7879;SDS011;3985;49.366;2.738;2023-07-08T03:44:49;12.50;;;10.50;;
7879;SDS011;3985;49.366;2.738;2023-07-08T03:47:19;10.75;;;9.00;;
7879;SDS011;3985;49.366;2.738;2023-07-08T03:49:47;8.00;;;8.00;;
7879;SDS011;3985;49.366;2.738;2023-07-08T03:52:14;11.25;;;11.25;;
7879;SDS011;3985;49.366;2.738;2023-07-08T03:54:42;12.00;;;12.00;;
7879;SDS011;3985;49.366;2.738;2023-07-08T03:57:10;11.00;;;11.00;;
7879;SDS011;3985;49.366;2.738;2023-07-08T03:59:38;10.25;;;10.00;;
7879;SDS011;3985;49.366;2.738;2023-07-08T04:02:08;13.25;;;10.25;;
7879;SDS011;3985;49.366;2.738;2023-07-08T04:04:40;10.50;;;10.50;;
7879;SDS011;3985;49.366;2.738;2023-07-08T04:07:07;13.00;;;13.00;;
7879;SDS011;3985;49.366;2.738;2023-07-08T04:09:37;10.50;;;9.25;;
7879;SDS011;3985;49.366;2.738;2023-07-08T04:12:05;7.00;;;7.00;;
7879;SDS011;3985;49.366;2.738;2023-07-08T04:14:34;11.25;;;10.50;;
7879;SDS011;3985;49.366;2.738;2023-07-08T04:17:02;12.00;;;12.00;;
7879;SDS011;3985;49.366;2.738;2023-07-08T04:19:30;11.75;;;11.75;;
7879;SDS011;3985;49.366;2.738;2023-07-08T04:21:57;12.25;;;12.25;;
7879;SDS011;3985;49.366;2.738;2023-07-08T04:24:24;11.00;;;9.25;;
7879;SDS011;3985;49.366;2.738;2023-07-08T04:26:54;9.75;;;8.75;;
7879;SDS011;3985;49.366;2.738;2023-07-08T04:29:22;11.25;;;11.25;;
7879;SDS011;3985;49.366;2.738;2023-07-08T04:31:49;12.50;;;10.50;;
7879;SDS011;3985;49.366;2.738;2023-07-08T04:34:18;13.00;;;11.25;;
7879;SDS011;3985;49.366;2.738;2023-07-08T04:36:46;13.00;;;11.50;;
7879;SDS011;3985;49.366;2.738;2023-07-08T04:39:13;10.50;;;10.50;;
7879;SDS011;3985;49.366;2.738;2023-07-08T04:41:40;9.75;;;9.75;;
7879;SDS011;3985;49.366;2.738;2023-07-08T04:44:08;9.50;;;9.50;;
7879;SDS011;3985;49.366;2.738;2023-07-08T04:46:39;10.00;;;10.00;;
7879;SDS011;3985;49.366;2.738;2023-07-08T04:49:09;11.25;;;11.25;;
7879;SDS011;3985;49.366;2.738;2023-07-08T04:51:38;11.00;;;11.00;;
7879;SDS011;3985;49.366;2.738;2023-07-08T04:54:06;13.25;;;11.00;;
7879;SDS011;3985;49.366;2.738;2023-07-08T04:56:35;14.00;;;12.00;;
7879;SDS011;3985;49.366;2.738;2023-07-08T04:59:03;9.00;;;8.50;;
7879;SDS011;3985;49.366;2.738;2023-07-08T05:01:33;14.00;;;12.75;;
7879;SDS011;3985;49.366;2.738;2023-07-08T05:04:00;11.50;;;11.00;;
7879;SDS011;3985;49.366;2.738;2023-07-08T05:06:31;11.00;;;11.00;;
7879;SDS011;3985;49.366;2.738;2023-07-08T05:09:00;12.50;;;11.00;;
7879;SDS011;3985;49.366;2.738;2023-07-08T05:11:28;8.50;;;8.50;;
7879;SDS011;3985;49.366;2.738;2023-07-08T05:13:55;10.00;;;10.00;;
7879;SDS011;3985;49.366;2.738;2023-07-08T05:16:23;10.00;;;10.00;;
7879;SDS011;3985;49.366;2.738;2023-07-08T05:18:50;11.50;;;11.50;;
7879;SDS011;3985;49.366;2.738;2023-07-08T05:21:18;12.00;;;12.00;;
7879;SDS011;3985;49.366;2.738;2023-07-08T05:23:45;13.25;;;13.25;;
7879;SDS011;3985;49.366;2.738;2023-07-08T05:26:16;11.00;;;11.00;;
7879;SDS011;3985;49.366;2.738;2023-07-08T05:28:43;15.00;;;13.00;;
7879;SDS011;3985;49.366;2.738;2023-07-08T05:31:11;13.75;;;13.75;;
7879;SDS011;3985;49.366;2.738;2023-07-08T05:33:38;5.75;;;5.50;;
7879;SDS011;3985;49.366;2.738;2023-07-08T05:36:06;16.75;;;13.75;;
7879;SDS011;3985;49.366;2.738;2023-07-08T05:38:33;9.25;;;9.25;;
7879;SDS011;3985;49.366;2.738;2023-07-08T05:41:00;12.50;;;10.75;;
7879;SDS011;3985;49.366;2.738;2023-07-08T05:43:29;10.25;;;10.25;;
7879;SDS011;3985;49.366;2.738;2023-07-08T05:46:00;12.50;;;12.50;;
7879;SDS011;3985;49.366;2.738;2023-07-08T05:48:30;12.75;;;12.50;;
7879;SDS011;3985;49.366;2.738;2023-07-08T05:50:58;20.75;;;16.25;;
7879;SDS011;3985;49.366;2.738;2023-07-08T05:53:25;10.25;;;9.50;;
7879;SDS011;3985;49.366;2.738;2023-07-08T05:55:55;10.25;;;9.50;;
7879;SDS011;3985;49.366;2.738;2023-07-08T05:58:27;10.50;;;10.50;;
7879;SDS011;3985;49.366;2.738;2023-07-08T06:00:55;9.75;;;9.75;;
7879;SDS011;3985;49.366;2.738;2023-07-08T06:03:23;9.25;;;9.25;;
7879;SDS011;3985;49.366;2.738;2023-07-08T06:05:51;8.75;;;8.75;;
7879;SDS011;3985;49.366;2.738;2023-07-08T06:08:19;13.20;;;11.80;;
7879;SDS011;3985;49.366;2.738;2023-07-08T06:10:46;10.60;;;10.60;;
7879;SDS011;3985;49.366;2.738;2023-07-08T06:13:14;12.20;;;12.20;;
7879;SDS011;3985;49.366;2.738;2023-07-08T06:15:43;8.40;;;8.20;;
7879;SDS011;3985;49.366;2.738;2023-07-08T06:18:10;14.40;;;14.40;;
7879;SDS011;3985;49.366;2.738;2023-07-08T06:20:37;11.80;;;10.40;;
7879;SDS011;3985;49.366;2.738;2023-07-08T06:23:04;7.60;;;7.60;;
7879;SDS011;3985;49.366;2.738;2023-07-08T06:25:32;9.20;;;7.80;;
7879;SDS011;3985;49.366;2.738;2023-07-08T06:27:59;10.20;;;10.20;;
7879;SDS011;3985;49.366;2.738;2023-07-08T06:30:27;9.00;;;8.00;;
7879;SDS011;3985;49.366;2.738;2023-07-08T06:32:59;9.40;;;8.00;;
7879;SDS011;3985;49.366;2.738;2023-07-08T06:35:26;7.80;;;7.80;;
7879;SDS011;3985;49.366;2.738;2023-07-08T06:37:54;9.60;;;9.60;;
7879;SDS011;3985;49.366;2.738;2023-07-08T06:40:25;10.60;;;10.60;;
7879;SDS011;3985;49.366;2.738;2023-07-08T06:42:56;6.00;;;6.00;;
7879;SDS011;3985;49.366;2.738;2023-07-08T06:45:23;11.40;;;10.00;;
7879;SDS011;3985;49.366;2.738;2023-07-08T06:47:53;7.20;;;7.20;;
7879;SDS011;3985;49.366;2.738;2023-07-08T06:50:22;8.20;;;8.00;;
7879;SDS011;3985;49.366;2.738;2023-07-08T06:52:49;9.60;;;9.60;;
7879;SDS011;3985;49.366;2.738;2023-07-08T06:55:16;10.40;;;8.40;;
7879;SDS011;3985;49.366;2.738;2023-07-08T06:57:44;7.60;;;7.60;;
7879;SDS011;3985;49.366;2.738;2023-07-08T07:00:11;22.00;;;21.00;;
7879;SDS011;3985;49.366;2.738;2023-07-08T07:02:38;9.40;;;9.40;;
7879;SDS011;3985;49.366;2.738;2023-07-08T07:05:06;12.20;;;9.00;;
7879;SDS011;3985;49.366;2.738;2023-07-08T07:07:35;6.80;;;6.80;;
7879;SDS011;3985;49.366;2.738;2023-07-08T07:10:02;11.00;;;9.60;;
7879;SDS011;3985;49.366;2.738;2023-07-08T07:12:30;8.20;;;8.20;;
7879;SDS011;3985;49.366;2.738;2023-07-08T07:14:58;7.60;;;7.60;;
7879;SDS011;3985;49.366;2.738;2023-07-08T07:17:25;6.20;;;6.20;;
7879;SDS011;3985;49.366;2.738;2023-07-08T07:19:53;3.80;;;3.80;;
7879;SDS011;3985;49.366;2.738;2023-07-08T07:22:20;7.00;;;7.00;;
7879;SDS011;3985;49.366;2.738;2023-07-08T07:24:49;4.60;;;4.60;;
7879;SDS011;3985;49.366;2.738;2023-07-08T07:27:16;6.80;;;5.20;;
7879;SDS011;3985;49.366;2.738;2023-07-08T07:29:45;8.20;;;6.40;;
7879;SDS011;3985;49.366;2.738;2023-07-08T07:32:13;7.20;;;5.80;;
7879;SDS011;3985;49.366;2.738;2023-07-08T07:34:41;5.60;;;5.60;;
7879;SDS011;3985;49.366;2.738;2023-07-08T07:37:11;7.00;;;5.20;;
7879;SDS011;3985;49.366;2.738;2023-07-08T07:39:42;6.00;;;6.00;;
7879;SDS011;3985;49.366;2.738;2023-07-08T07:42:11;6.80;;;6.00;;
7879;SDS011;3985;49.366;2.738;2023-07-08T07:44:39;6.40;;;5.20;;
7879;SDS011;3985;49.366;2.738;2023-07-08T07:47:06;6.00;;;5.00;;
7879;SDS011;3985;49.366;2.738;2023-07-08T07:49:37;4.60;;;4.40;;
7879;SDS011;3985;49.366;2.738;2023-07-08T07:52:05;5.80;;;5.20;;
7879;SDS011;3985;49.366;2.738;2023-07-08T07:54:34;5.40;;;4.00;;
7879;SDS011;3985;49.366;2.738;2023-07-08T07:57:01;5.20;;;4.60;;
7879;SDS011;3985;49.366;2.738;2023-07-08T07:59:30;6.00;;;6.00;;
7879;SDS011;3985;49.366;2.738;2023-07-08T08:01:57;4.00;;;4.00;;
7879;SDS011;3985;49.366;2.738;2023-07-08T08:04:24;4.80;;;4.80;;
7879;SDS011;3985;49.366;2.738;2023-07-08T08:06:51;5.00;;;5.00;;
7879;SDS011;3985;49.366;2.738;2023-07-08T08:09:19;0.20;;;0.20;;
7879;SDS011;3985;49.366;2.738;2023-07-08T08:11:46;4.00;;;4.00;;
7879;SDS011;3985;49.366;2.738;2023-07-08T08:14:13;5.20;;;3.40;;
7879;SDS011;3985;49.366;2.738;2023-07-08T08:16:41;4.60;;;3.80;;
7879;SDS011;3985;49.366;2.738;2023-07-08T08:19:09;5.20;;;4.40;;
7879;SDS011;3985;49.366;2.738;2023-07-08T08:21:36;4.40;;;2.80;;
7879;SDS011;3985;49.366;2.738;2023-07-08T08:24:04;2.20;;;1.00;;
7879;SDS011;3985;49.366;2.738;2023-07-08T08:26:31;6.20;;;3.60;;
7879;SDS011;3985;49.366;2.738;2023-07-08T08:28:58;3.00;;;3.00;;
7879;SDS011;3985;49.366;2.738;2023-07-08T08:31:26;5.40;;;5.00;;
7879;SDS011;3985;49.366;2.738;2023-07-08T08:33:55;4.00;;;4.00;;
7879;SDS011;3985;49.366;2.738;2023-07-08T08:36:22;4.20;;;3.00;;
7879;SDS011;3985;49.366;2.738;2023-07-08T08:38:49;6.00;;;4.60;;
7879;SDS011;3985;49.366;2.738;2023-07-08T08:41:17;3.60;;;3.60;;
7879;SDS011;3985;49.366;2.738;2023-07-08T08:43:46;3.20;;;3.20;;
7879;SDS011;3985;49.366;2.738;2023-07-08T08:46:16;3.60;;;2.80;;
7879;SDS011;3985;49.366;2.738;2023-07-08T08:48:55;2.00;;;2.00;;
7879;SDS011;3985;49.366;2.738;2023-07-08T08:51:26;4.00;;;2.20;;
7879;SDS011;3985;49.366;2.738;2023-07-08T08:53:56;3.00;;;3.00;;
7879;SDS011;3985;49.366;2.738;2023-07-08T08:56:25;3.20;;;3.20;;
7879;SDS011;3985;49.366;2.738;2023-07-08T08:58:56;3.60;;;3.60;;
7879;SDS011;3985;49.366;2.738;2023-07-08T09:01:29;3.80;;;2.80;;
7879;SDS011;3985;49.366;2.738;2023-07-08T09:03:59;2.20;;;2.20;;
7879;SDS011;3985;49.366;2.738;2023-07-08T09:06:28;2.40;;;2.40;;
7879;SDS011;3985;49.366;2.738;2023-07-08T09:09:00;2.00;;;2.00;;
7879;SDS011;3985;49.366;2.738;2023-07-08T09:11:35;3.20;;;2.80;;
7879;SDS011;3985;49.366;2.738;2023-07-08T09:14:08;4.00;;;2.00;;
7879;SDS011;3985;49.366;2.738;2023-07-08T09:16:43;3.00;;;1.40;;
7879;SDS011;3985;49.366;2.738;2023-07-08T09:19:18;4.00;;;2.20;;
7879;SDS011;3985;49.366;2.738;2023-07-08T09:21:50;4.00;;;2.00;;
7879;SDS011;3985;49.366;2.738;2023-07-08T09:24:22;1.80;;;1.80;;
7879;SDS011;3985;49.366;2.738;2023-07-08T09:26:55;3.00;;;3.00;;
7879;SDS011;3985;49.366;2.738;2023-07-08T09:29:26;4.00;;;4.00;;
7879;SDS011;3985;49.366;2.738;2023-07-08T09:31:53;3.20;;;3.20;;
7879;SDS011;3985;49.366;2.738;2023-07-08T09:34:23;2.80;;;2.60;;
7879;SDS011;3985;49.366;2.738;2023-07-08T09:37:02;2.60;;;2.60;;
7879;SDS011;3985;49.366;2.738;2023-07-08T09:39:31;2.20;;;2.20;;
7879;SDS011;3985;49.366;2.738;2023-07-08T09:41:58;2.00;;;2.00;;
7879;SDS011;3985;49.366;2.738;2023-07-08T09:44:33;2.60;;;2.60;;
7879;SDS011;3985;49.366;2.738;2023-07-08T09:47:00;5.00;;;2.00;;
7879;SDS011;3985;49.366;2.738;2023-07-08T09:49:30;2.80;;;2.80;;
7879;SDS011;3985;49.366;2.738;2023-07-08T09:51:59;4.80;;;3.40;;
7879;SDS011;3985;49.366;2.738;2023-07-08T09:54:27;2.00;;;2.00;;
7879;SDS011;3985;49.366;2.738;2023-07-08T09:56:58;3.00;;;3.00;;
7879;SDS011;3985;49.366;2.738;2023-07-08T09:59:29;2.80;;;2.80;;
7879;SDS011;3985;49.366;2.738;2023-07-08T10:02:00;3.00;;;3.00;;
7879;SDS011;3985;49.366;2.738;2023-07-08T10:04:30;2.00;;;2.00;;
7879;SDS011;3985;49.366;2.738;2023-07-08T10:06:57;3.00;;;3.00;;
7879;SDS011;3985;49.366;2.738;2023-07-08T10:09:26;0.00;;;0.00;;
7879;SDS011;3985;49.366;2.738;2023-07-08T10:11:54;4.80;;;3.00;;
7879;SDS011;3985;49.366;2.738;2023-07-08T10:14:28;3.60;;;3.60;;
7879;SDS011;3985;49.366;2.738;2023-07-08T10:16:57;3.20;;;3.20;;
7879;SDS011;3985;49.366;2.738;2023-07-08T10:19:25;3.20;;;3.20;;
7879;SDS011;3985;49.366;2.738;2023-07-08T10:22:04;3.40;;;3.40;;
7879;SDS011;3985;49.366;2.738;2023-07-08T10:25:01;3.40;;;3.40;;
7879;SDS011;3985;49.366;2.738;2023-07-08T10:27:35;3.00;;;3.00;;
7879;SDS011;3985;49.366;2.738;2023-07-08T10:30:14;2.40;;;2.40;;
7879;SDS011;3985;49.366;2.738;2023-07-08T10:32:50;9.00;;;8.00;;
7879;SDS011;3985;49.366;2.738;2023-07-08T10:35:27;37.40;;;31.40;;
7879;SDS011;3985;49.366;2.738;2023-07-08T10:38:09;17.20;;;14.00;;
7879;SDS011;3985;49.366;2.738;2023-07-08T10:40:49;21.80;;;20.80;;
7879;SDS011;3985;49.366;2.738;2023-07-08T10:43:37;5.40;;;5.40;;
7879;SDS011;3985;49.366;2.738;2023-07-08T10:46:16;7.40;;;5.80;;
7879;SDS011;3985;49.366;2.738;2023-07-08T10:48:55;3.80;;;3.40;;
7879;SDS011;3985;49.366;2.738;2023-07-08T10:51:31;3.40;;;3.40;;
7879;SDS011;3985;49.366;2.738;2023-07-08T10:54:27;4.00;;;4.00;;
7879;SDS011;3985;49.366;2.738;2023-07-08T10:57:16;4.20;;;4.20;;
7879;SDS011;3985;49.366;2.738;2023-07-08T10:59:55;3.80;;;3.00;;
7879;SDS011;3985;49.366;2.738;2023-07-08T11:02:33;1.60;;;1.60;;
7879;SDS011;3985;49.366;2.738;2023-07-08T11:05:24;5.80;;;4.40;;
7879;SDS011;3985;49.366;2.738;2023-07-08T11:07:57;4.40;;;4.40;;
7879;SDS011;3985;49.366;2.738;2023-07-08T11:10:29;4.40;;;4.40;;
7879;SDS011;3985;49.366;2.738;2023-07-08T11:13:01;3.60;;;3.60;;
7879;SDS011;3985;49.366;2.738;2023-07-08T11:15:30;5.00;;;3.40;;
7879;SDS011;3985;49.366;2.738;2023-07-08T11:18:01;3.20;;;3.20;;
7879;SDS011;3985;49.366;2.738;2023-07-08T11:20:38;3.00;;;3.00;;
7879;SDS011;3985;49.366;2.738;2023-07-08T11:23:09;1.00;;;1.00;;
7879;SDS011;3985;49.366;2.738;2023-07-08T11:25:45;2.80;;;2.40;;
7879;SDS011;3985;49.366;2.738;2023-07-08T11:28:14;2.00;;;2.00;;
7879;SDS011;3985;49.366;2.738;2023-07-08T11:30:44;6.00;;;3.00;;
7879;SDS011;3985;49.366;2.738;2023-07-08T11:33:13;3.00;;;3.00;;
7879;SDS011;3985;49.366;2.738;2023-07-08T11:35:42;1.00;;;1.00;;
7879;SDS011;3985;49.366;2.738;2023-07-08T11:38:13;4.20;;;4.20;;
7879;SDS011;3985;49.366;2.738;2023-07-08T11:40:53;3.00;;;3.00;;
7879;SDS011;3985;49.366;2.738;2023-07-08T11:43:22;5.00;;;3.80;;
7879;SDS011;3985;49.366;2.738;2023-07-08T11:45:51;4.00;;;4.00;;
7879;SDS011;3985;49.366;2.738;2023-07-08T11:48:22;3.60;;;3.60;;
7879;SDS011;3985;49.366;2.738;2023-07-08T11:50:52;3.80;;;3.80;;
7879;SDS011;3985;49.366;2.738;2023-07-08T11:53:34;3.40;;;3.40;;
7879;SDS011;3985;49.366;2.738;2023-07-08T11:56:05;4.00;;;4.00;;
7879;SDS011;3985;49.366;2.738;2023-07-08T11:58:50;3.80;;;3.80;;
7879;SDS011;3985;49.366;2.738;2023-07-08T12:01:26;3.20;;;3.20;;
7879;SDS011;3985;49.366;2.738;2023-07-08T12:03:58;5.00;;;3.00;;
7879;SDS011;3985;49.366;2.738;2023-07-08T12:06:42;3.80;;;3.80;;
7879;SDS011;3985;49.366;2.738;2023-07-08T12:09:22;3.80;;;3.80;;
7879;SDS011;3985;49.366;2.738;2023-07-08T12:11:55;4.00;;;4.00;;
7879;SDS011;3985;49.366;2.738;2023-07-08T12:14:30;4.00;;;3.00;;
7879;SDS011;3985;49.366;2.738;2023-07-08T12:16:59;5.40;;;3.80;;
7879;SDS011;3985;49.366;2.738;2023-07-08T12:19:27;4.80;;;4.80;;
7879;SDS011;3985;49.366;2.738;2023-07-08T12:22:00;5.20;;;4.40;;
7879;SDS011;3985;49.366;2.738;2023-07-08T12:24:29;3.60;;;3.60;;
7879;SDS011;3985;49.366;2.738;2023-07-08T12:27:00;3.40;;;3.40;;
7879;SDS011;3985;49.366;2.738;2023-07-08T12:29:29;3.20;;;3.20;;
7879;SDS011;3985;49.366;2.738;2023-07-08T12:31:59;4.60;;;4.60;;
7879;SDS011;3985;49.366;2.738;2023-07-08T12:34:29;4.00;;;4.00;;
7879;SDS011;3985;49.366;2.738;2023-07-08T12:37:07;4.40;;;4.40;;
7879;SDS011;3985;49.366;2.738;2023-07-08T12:39:40;4.00;;;4.00;;
7879;SDS011;3985;49.366;2.738;2023-07-08T12:42:12;3.00;;;3.00;;
7879;SDS011;3985;49.366;2.738;2023-07-08T12:44:42;3.40;;;3.40;;
7879;SDS011;3985;49.366;2.738;2023-07-08T12:47:13;2.40;;;2.40;;
7879;SDS011;3985;49.366;2.738;2023-07-08T12:49:40;4.80;;;4.80;;
7879;SDS011;3985;49.366;2.738;2023-07-08T12:52:18;3.40;;;3.40;;
7879;SDS011;3985;49.366;2.738;2023-07-08T12:54:47;3.40;;;3.40;;
7879;SDS011;3985;49.366;2.738;2023-07-08T12:57:19;1.20;;;1.00;;
7879;SDS011;3985;49.366;2.738;2023-07-08T12:59:49;4.00;;;4.00;;
7879;SDS011;3985;49.366;2.738;2023-07-08T13:02:23;2.60;;;2.60;;
7879;SDS011;3985;49.366;2.738;2023-07-08T13:04:56;5.20;;;4.00;;
7879;SDS011;3985;49.366;2.738;2023-07-08T13:07:29;2.20;;;2.20;;
7879;SDS011;3985;49.366;2.738;2023-07-08T13:10:02;3.60;;;3.60;;
7879;SDS011;3985;49.366;2.738;2023-07-08T13:13:04;3.00;;;3.00;;
7879;SDS011;3985;49.366;2.738;2023-07-08T13:15:43;5.60;;;5.60;;
7879;SDS011;3985;49.366;2.738;2023-07-08T13:18:15;5.40;;;4.60;;
7879;SDS011;3985;49.366;2.738;2023-07-08T13:20:43;7.00;;;4.80;;
7879;SDS011;3985;49.366;2.738;2023-07-08T13:23:13;6.00;;;4.60;;
7879;SDS011;3985;49.366;2.738;2023-07-08T13:25:40;4.40;;;3.60;;
7879;SDS011;3985;49.366;2.738;2023-07-08T13:28:16;4.80;;;4.80;;
7879;SDS011;3985;49.366;2.738;2023-07-08T13:30:51;6.00;;;4.80;;
7879;SDS011;3985;49.366;2.738;2023-07-08T13:33:19;4.00;;;4.00;;
7879;SDS011;3985;49.366;2.738;2023-07-08T13:35:47;5.20;;;5.20;;
7879;SDS011;3985;49.366;2.738;2023-07-08T13:38:16;5.00;;;5.00;;
7879;SDS011;3985;49.366;2.738;2023-07-08T13:40:45;4.00;;;4.00;;
7879;SDS011;3985;49.366;2.738;2023-07-08T13:43:15;3.40;;;3.40;;
7879;SDS011;3985;49.366;2.738;2023-07-08T13:45:43;4.00;;;4.00;;
7879;SDS011;3985;49.366;2.738;2023-07-08T13:48:13;5.40;;;4.00;;
7879;SDS011;3985;49.366;2.738;2023-07-08T13:50:45;6.20;;;4.40;;
7879;SDS011;3985;49.366;2.738;2023-07-08T13:53:15;4.80;;;4.80;;
7879;SDS011;3985;49.366;2.738;2023-07-08T13:55:48;4.00;;;4.00;;
7879;SDS011;3985;49.366;2.738;2023-07-08T13:58:25;3.60;;;3.60;;
7879;SDS011;3985;49.366;2.738;2023-07-08T14:00:56;4.80;;;4.60;;
7879;SDS011;3985;49.366;2.738;2023-07-08T14:03:23;6.00;;;3.20;;
7879;SDS011;3985;49.366;2.738;2023-07-08T14:05:51;4.40;;;3.20;;
7879;SDS011;3985;49.366;2.738;2023-07-08T14:08:18;2.80;;;2.80;;
7879;SDS011;3985;49.366;2.738;2023-07-08T14:10:47;4.00;;;4.00;;
7879;SDS011;3985;49.366;2.738;2023-07-08T14:13:14;4.40;;;4.40;;
7879;SDS011;3985;49.366;2.738;2023-07-08T14:15:44;3.40;;;3.40;;
7879;SDS011;3985;49.366;2.738;2023-07-08T14:18:13;5.80;;;4.00;;
7879;SDS011;3985;49.366;2.738;2023-07-08T14:20:41;5.00;;;3.40;;
7879;SDS011;3985;49.366;2.738;2023-07-08T14:23:09;4.80;;;4.80;;
7879;SDS011;3985;49.366;2.738;2023-07-08T14:25:38;4.40;;;4.40;;
7879;SDS011;3985;49.366;2.738;2023-07-08T14:28:05;3.20;;;3.20;;
7879;SDS011;3985;49.366;2.738;2023-07-08T14:30:33;4.80;;;4.20;;
7879;SDS011;3985;49.366;2.738;2023-07-08T14:33:07;4.00;;;4.00;;
7879;SDS011;3985;49.366;2.738;2023-07-08T14:35:35;3.00;;;3.00;;
7879;SDS011;3985;49.366;2.738;2023-07-08T14:38:07;4.20;;;3.60;;
7879;SDS011;3985;49.366;2.738;2023-07-08T14:40:40;4.20;;;4.20;;
7879;SDS011;3985;49.366;2.738;2023-07-08T14:45:54;4.00;;;4.00;;
7879;SDS011;3985;49.366;2.738;2023-07-08T14:48:26;6.00;;;4.00;;
7879;SDS011;3985;49.366;2.738;2023-07-08T14:50:54;4.00;;;4.00;;
7879;SDS011;3985;49.366;2.738;2023-07-08T14:53:22;3.60;;;3.60;;
7879;SDS011;3985;49.366;2.738;2023-07-08T14:55:51;4.40;;;4.40;;
7879;SDS011;3985;49.366;2.738;2023-07-08T14:58:20;3.60;;;3.60;;
7879;SDS011;3985;49.366;2.738;2023-07-08T15:00:49;4.60;;;3.60;;
7879;SDS011;3985;49.366;2.738;2023-07-08T15:03:17;4.80;;;4.20;;
7879;SDS011;3985;49.366;2.738;2023-07-08T15:05:46;6.00;;;4.40;;
7879;SDS011;3985;49.366;2.738;2023-07-08T15:08:13;4.60;;;4.60;;
7879;SDS011;3985;49.366;2.738;2023-07-08T15:10:41;6.20;;;4.80;;
7879;SDS011;3985;49.366;2.738;2023-07-08T15:13:12;3.40;;;3.40;;
7879;SDS011;3985;49.366;2.738;2023-07-08T15:15:42;2.20;;;2.20;;
7879;SDS011;3985;49.366;2.738;2023-07-08T15:18:13;3.00;;;3.00;;
7879;SDS011;3985;49.366;2.738;2023-07-08T15:20:43;3.00;;;3.00;;
7879;SDS011;3985;49.366;2.738;2023-07-08T15:23:12;4.00;;;4.00;;
7879;SDS011;3985;49.366;2.738;2023-07-08T15:25:39;4.20;;;4.20;;
7879;SDS011;3985;49.366;2.738;2023-07-08T15:28:09;4.00;;;4.00;;